Maple Ridge, Canada
Current Conditions -  °F | °C
As of 10:40 AM on Wednesday 26 Nov 2014 (Local Time) from CYXX Reporting Station
Haze Haze  
Wind Chill:   Ceiling: 2000
Heat Index:   Visibility: 4mi
Dew Point:   Wind: 6mph
Humidity: 100%   Direction: 20°NNE
Pressure: 30.07"   Gusts: NA
Location:  49.22°N, 122.6°W
Report Text: CYXX 261840Z 02005KT 4SM BR SCT004 OVC020 06/06 A3007 RMK SF4SC4 CIG LWR N-E SLP183
Loading
Personal Weather Stations






























Interactive Weather Map New forecast layout! Learn more

10-Day Weather Forecast

Advertisements
Track Severe Weather on mobile